createdAt,value
2019-04-29T00:01:14.293Z,102436.53
2019-04-29T00:03:47.228Z,102441.36
2019-04-29T00:06:20.470Z,102439.87
2019-04-29T00:08:53.471Z,102441.73
2019-04-29T00:11:26.557Z,102441.41
2019-04-29T00:13:59.491Z,102438.40
2019-04-29T00:16:32.458Z,102438.40
2019-04-29T00:19:05.506Z,102445.97
2019-04-29T00:21:38.485Z,102445.97
2019-04-29T00:24:12.147Z,102447.50
2019-04-29T00:26:45.520Z,102447.50
2019-04-29T00:29:18.609Z,102444.02
2019-04-29T00:31:51.747Z,102445.71
2019-04-29T00:34:24.732Z,102445.71
2019-04-29T00:36:57.720Z,102442.91
2019-04-29T00:39:30.859Z,102454.70
2019-04-29T00:42:04.027Z,102450.52
2019-04-29T00:44:36.974Z,102453.63
2019-04-29T00:47:10.023Z,102457.44
2019-04-29T00:49:42.964Z,102468.08
2019-04-29T00:52:15.837Z,102462.45
2019-04-29T00:54:48.724Z,102459.63
2019-04-29T00:57:21.624Z,102464.31
2019-04-29T00:59:54.912Z,102469.89
2019-04-29T01:02:27.933Z,102466.47
2019-04-29T01:05:00.880Z,102469.67
2019-04-29T01:07:33.927Z,102466.20
2019-04-29T01:10:07.098Z,102466.20
2019-04-29T01:12:40.088Z,102469.28
2019-04-29T01:15:13.337Z,102466.61
2019-04-29T01:17:46.262Z,102472.42
2019-04-29T01:20:19.269Z,102477.69
2019-04-29T01:22:52.287Z,102474.48
2019-04-29T01:25:25.302Z,102474.48
2019-04-29T01:27:58.387Z,102471.27
2019-04-29T01:30:56.092Z,102475.81
2019-04-29T01:33:29.037Z,102475.81
2019-04-29T01:36:01.992Z,102474.14
2019-04-29T01:38:34.906Z,102478.02
2019-04-29T01:41:08.130Z,102484.25
2019-04-29T01:43:40.988Z,102484.25
2019-04-29T01:46:14.165Z,102478.09
2019-04-29T01:48:47.071Z,102488.45
2019-04-29T01:51:20.070Z,102478.28
2019-04-29T01:53:53.033Z,102478.28
2019-04-29T01:56:27.196Z,102478.69
2019-04-29T01:59:00.058Z,102478.69
2019-04-29T02:01:33.383Z,102484.09
2019-04-29T02:04:06.421Z,102488.82
2019-04-29T02:06:39.431Z,102492.66
2019-04-29T02:09:12.773Z,102493.87
2019-04-29T02:11:45.779Z,102500.89
2019-04-29T02:14:18.675Z,102503.11
2019-04-29T02:16:53.221Z,102500.49
2019-04-29T02:19:26.148Z,102505.78
2019-04-29T02:21:59.042Z,102500.84
2019-04-29T02:24:31.936Z,102495.45
2019-04-29T02:27:05.807Z,102505.98
2019-04-29T02:29:38.759Z,102505.15
2019-04-29T02:32:11.715Z,102495.68
2019-04-29T02:34:44.647Z,102485.16
2019-04-29T02:37:17.654Z,102491.67
2019-04-29T02:39:50.581Z,102487.13
2019-04-29T02:42:23.489Z,102496.44
2019-04-29T02:44:56.423Z,102508.52
2019-04-29T02:47:29.346Z,102497.48
2019-04-29T02:50:02.449Z,102505.50
2019-04-29T02:52:35.347Z,102505.50
2019-04-29T02:55:08.520Z,102502.07
2019-04-29T02:57:41.382Z,102509.39
2019-04-29T03:00:14.872Z,102510.05
2019-04-29T03:02:47.860Z,102506.38
2019-04-29T03:05:20.919Z,102508.58
2019-04-29T03:07:53.915Z,102508.58
2019-04-29T03:10:27.262Z,102509.19
2019-04-29T03:13:00.297Z,102507.77
2019-04-29T03:15:33.380Z,102505.20
2019-04-29T03:18:06.436Z,102505.20
2019-04-29T03:20:39.702Z,102494.22
2019-04-29T03:23:12.769Z,102505.97
2019-04-29T03:25:45.902Z,102502.51
2019-04-29T03:28:18.895Z,102504.92
2019-04-29T03:30:51.900Z,102508.47
2019-04-29T03:33:24.911Z,102511.60
2019-04-29T03:35:58.113Z,102511.86
2019-04-29T03:38:31.026Z,102515.70
2019-04-29T03:41:03.952Z,102514.14
2019-04-29T03:43:37.197Z,102514.14
2019-04-29T03:46:10.178Z,102519.54
2019-04-29T03:48:43.020Z,102529.30
2019-04-29T03:51:16.223Z,102529.30
2019-04-29T03:53:49.132Z,102527.67
2019-04-29T03:56:22.050Z,102528.08
2019-04-29T03:58:54.911Z,102540.06
2019-04-29T04:01:27.823Z,102539.06
2019-04-29T04:04:00.701Z,102532.16
2019-04-29T04:06:33.574Z,102535.74
2019-04-29T04:09:06.786Z,102535.48
2019-04-29T04:11:39.898Z,102533.22
2019-04-29T04:14:12.756Z,102533.22
2019-04-29T04:16:45.600Z,102534.35
2019-04-29T04:19:18.558Z,102530.30
2019-04-29T04:21:51.399Z,102530.30
2019-04-29T04:24:24.425Z,102547.66
2019-04-29T04:26:57.313Z,102547.66
2019-04-29T04:29:30.185Z,102537.14
2019-04-29T04:32:03.195Z,102552.90
2019-04-29T04:34:36.047Z,102553.30
2019-04-29T04:37:08.910Z,102555.73
2019-04-29T04:39:41.908Z,102552.13
2019-04-29T04:42:15.122Z,102559.22
2019-04-29T04:44:48.011Z,102559.22
2019-04-29T04:47:21.007Z,102568.21
2019-04-29T04:49:53.899Z,102568.21
2019-04-29T04:52:27.159Z,102575.50
2019-04-29T04:55:00.328Z,102565.79
2019-04-29T04:57:33.295Z,102571.08
2019-04-29T05:00:06.541Z,102571.08
2019-04-29T05:02:39.576Z,102578.87
2019-04-29T05:05:12.806Z,102574.81
2019-04-29T05:07:45.845Z,102579.95
2019-04-29T05:10:18.892Z,102571.42
2019-04-29T05:12:51.853Z,102571.42
2019-04-29T05:15:25.200Z,102579.63
2019-04-29T05:17:58.287Z,102577.71
2019-04-29T05:20:31.227Z,102577.59
2019-04-29T05:23:04.314Z,102579.14
2019-04-29T05:25:37.335Z,102579.14
2019-04-29T05:28:10.283Z,102577.00
2019-04-29T05:30:43.437Z,102586.50
2019-04-29T05:33:16.412Z,102591.81
2019-04-29T05:35:49.327Z,102593.84
2019-04-29T05:38:22.363Z,102596.28
2019-04-29T05:40:56.988Z,102596.28
2019-04-29T05:43:32.097Z,102581.34
2019-04-29T05:46:07.384Z,102586.89
2019-04-29T05:48:39.545Z,102597.77
2019-04-29T05:51:12.487Z,102597.77
2019-04-29T05:53:47.792Z,102604.00
2019-04-29T05:56:19.964Z,102602.70
2019-04-29T05:58:52.901Z,102610.92
2019-04-29T06:01:25.877Z,102611.19
2019-04-29T06:03:58.866Z,102616.38
2019-04-29T06:06:31.713Z,102621.56
2019-04-29T06:09:06.529Z,102632.69
2019-04-29T06:11:39.492Z,102635.98
2019-04-29T06:14:12.874Z,102635.98
2019-04-29T06:16:46.239Z,102634.16
2019-04-29T06:19:19.201Z,102635.87
2019-04-29T06:21:52.163Z,102639.94
2019-04-29T06:24:25.105Z,102635.30
2019-04-29T06:26:58.257Z,102639.92
2019-04-29T06:29:31.195Z,102641.41
2019-04-29T06:32:04.359Z,102641.41
2019-04-29T06:34:40.194Z,102638.87
2019-04-29T06:37:12.356Z,102647.58
2019-04-29T06:39:46.006Z,102644.05
2019-04-29T06:42:19.657Z,102653.50
2019-04-29T06:44:53.484Z,102653.50
2019-04-29T06:47:26.489Z,102658.88
2019-04-29T06:49:59.386Z,102658.88
2019-04-29T06:52:32.627Z,102651.17
2019-04-29T06:55:06.519Z,102656.67
2019-04-29T06:57:39.433Z,102659.69
2019-04-29T07:00:12.695Z,102661.03
2019-04-29T07:02:49.754Z,102660.30
2019-04-29T07:05:20.541Z,102664.58
2019-04-29T07:07:53.434Z,102674.27
2019-04-29T07:10:27.311Z,102674.47
2019-04-29T07:13:00.629Z,102674.47
2019-04-29T07:15:33.666Z,102671.98
2019-04-29T07:18:06.833Z,102674.55
2019-04-29T07:20:39.810Z,102673.20
2019-04-29T07:23:12.904Z,102670.89
2019-04-29T07:25:45.869Z,102678.03
2019-04-29T07:28:19.667Z,102675.81
2019-04-29T07:31:01.576Z,102682.59
2019-04-29T07:33:27.415Z,102684.96
2019-04-29T07:36:10.863Z,102695.36
2019-04-29T07:38:41.508Z,102692.95
2019-04-29T07:41:10.140Z,102699.73
2019-04-29T07:43:44.220Z,102690.63
2019-04-29T07:46:17.221Z,102692.56
2019-04-29T07:49:00.736Z,102699.77
2019-04-29T07:51:25.064Z,102699.77
2019-04-29T07:53:57.937Z,102693.83
2019-04-29T07:56:30.959Z,102693.83
2019-04-29T07:59:04.631Z,102704.09
2019-04-29T08:01:37.661Z,102710.59
2019-04-29T08:04:10.705Z,102714.80
2019-04-29T08:06:44.989Z,102712.17
2019-04-29T08:09:18.138Z,102713.78
2019-04-29T08:11:51.411Z,102721.55
2019-04-29T08:14:27.474Z,102721.55
2019-04-29T08:17:00.758Z,102720.48
2019-04-29T08:19:33.990Z,102720.48
2019-04-29T08:22:06.922Z,102726.80
2019-04-29T08:24:39.921Z,102724.11
2019-04-29T08:27:12.926Z,102724.11
2019-04-29T08:29:46.115Z,102718.98
2019-04-29T08:32:19.020Z,102718.98
2019-04-29T08:34:53.606Z,102730.69
2019-04-29T08:37:26.903Z,102723.06
2019-04-29T08:40:15.152Z,102721.78
2019-04-29T08:42:37.233Z,102727.05
2019-04-29T08:45:09.671Z,102727.05
2019-04-29T08:47:42.756Z,102729.04
2019-04-29T08:50:16.183Z,102739.91
2019-04-29T08:52:49.127Z,102731.91
2019-04-29T08:55:22.043Z,102724.86
2019-04-29T08:57:54.960Z,102730.58
2019-04-29T09:00:27.981Z,102730.58
2019-04-29T09:03:00.943Z,102724.70
2019-04-29T09:05:33.931Z,102724.70
2019-04-29T09:08:06.874Z,102729.19
2019-04-29T09:10:40.082Z,102716.92
2019-04-29T09:13:13.055Z,102711.97
2019-04-29T09:15:46.129Z,102708.64
2019-04-29T09:18:19.435Z,102718.50
2019-04-29T09:20:52.514Z,102713.52
2019-04-29T09:23:25.805Z,102709.16
2019-04-29T09:26:02.963Z,102709.89
2019-04-29T09:28:33.441Z,102722.80
2019-04-29T09:31:06.392Z,102722.80
2019-04-29T09:33:39.293Z,102722.08
2019-04-29T09:36:13.958Z,102728.79
2019-04-29T09:38:47.157Z,102720.10
2019-04-29T09:41:20.189Z,102720.10
2019-04-29T09:43:53.095Z,102709.60
2019-04-29T09:46:30.040Z,102711.41
2019-04-29T09:49:01.007Z,102711.41
2019-04-29T09:51:33.980Z,102704.80
2019-04-29T09:54:09.628Z,102688.94
2019-04-29T09:56:42.048Z,102689.42
2019-04-29T09:59:14.919Z,102689.42
2019-04-29T10:01:50.602Z,102691.63
2019-04-29T10:04:22.608Z,102698.81
2019-04-29T10:06:55.587Z,102688.28
2019-04-29T10:09:28.490Z,102683.66
2019-04-29T10:12:01.450Z,102683.66
2019-04-29T10:14:34.446Z,102675.36
2019-04-29T10:17:11.169Z,102675.36
2019-04-29T10:19:42.055Z,102678.99
2019-04-29T10:22:15.252Z,102681.15
2019-04-29T10:24:48.227Z,102675.77
2019-04-29T10:27:21.225Z,102675.47
2019-04-29T10:29:55.293Z,102673.95
2019-04-29T10:32:28.848Z,102673.95
2019-04-29T10:35:03.646Z,102683.37
2019-04-29T10:37:36.850Z,102675.17
2019-04-29T10:40:11.862Z,102675.17
2019-04-29T10:42:44.829Z,102668.28
2019-04-29T10:45:17.917Z,102667.22
2019-04-29T10:47:51.302Z,102659.39
2019-04-29T10:50:26.949Z,102652.20
2019-04-29T10:53:01.333Z,102652.20
2019-04-29T10:55:34.357Z,102656.02
2019-04-29T10:58:07.597Z,102656.02
2019-04-29T11:01:23.691Z,102652.44
2019-04-29T11:04:00.710Z,102653.95
2019-04-29T11:06:35.874Z,102644.64
2019-04-29T11:09:09.649Z,102644.64
2019-04-29T11:11:43.457Z,102644.18
2019-04-29T11:14:17.063Z,102648.17
2019-04-29T11:16:49.978Z,102653.17
2019-04-29T11:19:23.053Z,102646.32
2019-04-29T11:21:55.983Z,102646.32
2019-04-29T11:24:32.330Z,102640.30
2019-04-29T11:27:11.681Z,102640.30
2019-04-29T11:29:38.971Z,102630.83
2019-04-29T11:32:12.585Z,102630.83
2019-04-29T11:34:48.441Z,102637.09
2019-04-29T11:37:20.205Z,102641.97
2019-04-29T11:39:53.375Z,102644.52
2019-04-29T11:42:26.282Z,102639.23
2019-04-29T11:45:02.114Z,102639.23
2019-04-29T11:47:33.953Z,102632.31
2019-04-29T11:50:11.796Z,102636.86
2019-04-29T11:52:42.540Z,102644.31
2019-04-29T11:55:18.603Z,102642.68
2019-04-29T11:57:51.002Z,102628.19
2019-04-29T12:00:24.110Z,102628.34
2019-04-29T12:02:57.108Z,102628.34
2019-04-29T12:05:30.399Z,102623.39
2019-04-29T12:08:11.159Z,102624.91
2019-04-29T12:10:46.715Z,102622.33
2019-04-29T12:13:13.078Z,102622.33
2019-04-29T12:15:49.274Z,102629.95
2019-04-29T12:18:20.942Z,102638.28
2019-04-29T12:20:53.930Z,102640.98
2019-04-29T12:23:26.834Z,102631.97
2019-04-29T12:26:03.224Z,102631.97
2019-04-29T12:28:37.836Z,102618.92
2019-04-29T12:31:10.259Z,102618.92
2019-04-29T12:33:44.082Z,102620.00
2019-04-29T12:36:17.116Z,102612.14
2019-04-29T12:38:51.139Z,102612.14
2019-04-29T12:41:29.658Z,102604.81
2019-04-29T12:43:59.477Z,102604.81
2019-04-29T12:46:32.754Z,102615.52
2019-04-29T12:49:08.521Z,102621.12
2019-04-29T12:51:40.485Z,102625.77
2019-04-29T12:54:13.468Z,102623.11
2019-04-29T12:56:47.633Z,102621.52
2019-04-29T12:59:21.325Z,102610.39
2019-04-29T13:01:58.586Z,102599.71
2019-04-29T13:04:29.314Z,102588.65
2019-04-29T13:07:02.536Z,102588.65
2019-04-29T13:09:35.409Z,102578.95
2019-04-29T13:12:18.931Z,102578.95
2019-04-29T13:14:43.034Z,102572.43
2019-04-29T13:17:15.968Z,102574.23
2019-04-29T13:20:00.768Z,102574.23
2019-04-29T13:22:23.440Z,102565.83
2019-04-29T13:24:56.348Z,102562.08
2019-04-29T13:27:29.655Z,102562.08
2019-04-29T13:30:07.206Z,102550.06
2019-04-29T13:32:38.530Z,102550.06
2019-04-29T13:35:12.721Z,102552.70
2019-04-29T13:37:45.912Z,102557.03
2019-04-29T13:40:19.921Z,102539.52
2019-04-29T13:42:52.845Z,102546.34
2019-04-29T13:45:26.452Z,102538.89
2019-04-29T13:48:01.873Z,102542.63
2019-04-29T13:50:39.909Z,102540.25
2019-04-29T13:53:11.572Z,102552.74
2019-04-29T13:55:49.427Z,102552.74
2019-04-29T13:58:22.073Z,102550.27
2019-04-29T14:00:55.703Z,102550.27
2019-04-29T14:03:27.514Z,102545.50
2019-04-29T14:06:04.160Z,102545.04
2019-04-29T14:08:34.889Z,102545.58
2019-04-29T14:11:07.781Z,102545.58
2019-04-29T14:13:43.236Z,102544.79
2019-04-29T14:16:15.213Z,102551.61
2019-04-29T14:18:49.927Z,102554.50
2019-04-29T14:21:25.641Z,102551.47
2019-04-29T14:23:57.597Z,102549.14
2019-04-29T14:26:30.525Z,102543.86
2019-04-29T14:29:03.739Z,102533.53
2019-04-29T14:31:36.577Z,102533.53
2019-04-29T14:34:09.648Z,102536.27
2019-04-29T14:36:43.553Z,102531.29
2019-04-29T14:39:17.547Z,102531.29
2019-04-29T14:41:55.465Z,102536.01
2019-04-29T14:44:30.190Z,102536.01
2019-04-29T14:47:01.330Z,102531.60
2019-04-29T14:49:35.435Z,102531.29
2019-04-29T14:52:13.299Z,102539.58
2019-04-29T14:54:44.113Z,102531.58
2019-04-29T14:57:17.090Z,102532.45
2019-04-29T14:59:50.272Z,102532.45
2019-04-29T15:02:23.492Z,102527.22
2019-04-29T15:04:56.638Z,102533.20
2019-04-29T15:07:29.872Z,102530.98
2019-04-29T15:10:03.917Z,102530.61
2019-04-29T15:12:50.980Z,102530.61
2019-04-29T15:15:11.696Z,102531.92
2019-04-29T15:17:46.272Z,102531.48
2019-04-29T15:20:19.401Z,102536.30
2019-04-29T15:22:52.290Z,102535.80
2019-04-29T15:25:25.232Z,102535.33
2019-04-29T15:27:58.267Z,102535.33
2019-04-29T15:30:31.861Z,102529.16
2019-04-29T15:33:06.199Z,102529.16
2019-04-29T15:35:39.435Z,102537.80
2019-04-29T15:38:12.350Z,102537.80
2019-04-29T15:40:45.453Z,102533.10
2019-04-29T15:43:24.618Z,102531.16
2019-04-29T15:45:53.126Z,102538.17
2019-04-29T15:48:26.028Z,102535.56
2019-04-29T15:50:59.004Z,102532.52
2019-04-29T15:53:33.973Z,102532.52
2019-04-29T15:56:20.484Z,102539.70
2019-04-29T15:58:41.926Z,102539.70
2019-04-29T16:01:17.636Z,102535.49
2019-04-29T16:03:54.047Z,102534.71
2019-04-29T16:06:24.719Z,102534.71
2019-04-29T16:08:59.050Z,102536.92
2019-04-29T16:11:33.325Z,102537.00
2019-04-29T16:14:10.276Z,102538.94
2019-04-29T16:16:42.201Z,102538.94
2019-04-29T16:19:15.139Z,102536.95
2019-04-29T16:21:48.193Z,102547.00
2019-04-29T16:24:37.162Z,102547.00
2019-04-29T16:26:55.859Z,102542.67
2019-04-29T16:29:30.443Z,102533.64
2019-04-29T16:32:05.023Z,102533.64
2019-04-29T16:34:44.644Z,102534.92
2019-04-29T16:37:19.039Z,102534.92
2019-04-29T16:39:47.699Z,102532.02
2019-04-29T16:42:20.775Z,102517.03
2019-04-29T16:44:53.654Z,102517.03
2019-04-29T16:47:26.605Z,102518.16
2019-04-29T16:50:04.687Z,102518.16
2019-04-29T16:52:34.323Z,102519.74
2019-04-29T16:55:07.584Z,102515.16
2019-04-29T16:57:40.593Z,102515.83
2019-04-29T17:00:15.830Z,102515.72
2019-04-29T17:02:49.002Z,102518.80
2019-04-29T17:05:21.919Z,102515.45
2019-04-29T17:07:54.930Z,102515.45
2019-04-29T17:10:27.969Z,102511.05
2019-04-29T17:13:00.975Z,102508.94
2019-04-29T17:15:34.405Z,102507.97
2019-04-29T17:18:07.350Z,102515.00
2019-04-29T17:20:40.699Z,102508.45
2019-04-29T17:23:13.693Z,102508.45
2019-04-29T17:25:46.742Z,102515.83
2019-04-29T17:28:25.422Z,102515.83
2019-04-29T17:30:54.854Z,102511.16
2019-04-29T17:33:29.834Z,102514.63
2019-04-29T17:36:03.094Z,102511.16
2019-04-29T17:38:36.119Z,102511.23
2019-04-29T17:41:09.384Z,102515.34
2019-04-29T17:43:43.072Z,102515.34
2019-04-29T17:46:17.069Z,102511.87
2019-04-29T17:48:53.138Z,102515.90
2019-04-29T17:51:24.881Z,102515.90
2019-04-29T17:53:57.804Z,102512.47
2019-04-29T17:56:30.919Z,102513.11
2019-04-29T17:59:05.949Z,102515.08
2019-04-29T18:01:42.853Z,102513.94
2019-04-29T18:04:16.677Z,102520.19
2019-04-29T18:06:48.883Z,102514.11
2019-04-29T18:09:22.098Z,102514.11
2019-04-29T18:11:57.519Z,102515.09
2019-04-29T18:14:37.260Z,102507.34
2019-04-29T18:17:05.007Z,102507.34
2019-04-29T18:19:38.481Z,102503.66
2019-04-29T18:22:11.527Z,102506.70
2019-04-29T18:24:45.330Z,102507.90
2019-04-29T18:27:18.664Z,102510.88
2019-04-29T18:29:51.658Z,102510.88
2019-04-29T18:32:34.984Z,102512.14
2019-04-29T18:34:59.317Z,102512.14
2019-04-29T18:37:36.913Z,102518.69
2019-04-29T18:40:07.599Z,102518.69
2019-04-29T18:42:43.329Z,102520.91
2019-04-29T18:45:15.831Z,102518.78
2019-04-29T18:47:48.813Z,102520.36
2019-04-29T18:50:21.735Z,102517.59
2019-04-29T18:52:56.043Z,102517.59
2019-04-29T18:55:29.021Z,102528.20
2019-04-29T18:58:02.445Z,102518.13
2019-04-29T19:00:35.691Z,102521.28
2019-04-29T19:03:08.720Z,102521.28
2019-04-29T19:05:42.250Z,102530.27
2019-04-29T19:08:22.815Z,102541.16
2019-04-29T19:10:52.152Z,102531.95
2019-04-29T19:13:26.069Z,102534.00
2019-04-29T19:16:09.617Z,102534.00
2019-04-29T19:18:34.049Z,102542.78
2019-04-29T19:21:06.993Z,102542.89
2019-04-29T19:23:40.037Z,102542.89
2019-04-29T19:26:13.922Z,102542.89
2019-04-29T19:28:46.857Z,102544.83
2019-04-29T19:31:19.977Z,102544.83
2019-04-29T19:33:55.055Z,102552.47
2019-04-29T19:36:27.955Z,102552.47
2019-04-29T19:39:00.990Z,102552.58
2019-04-29T19:41:35.583Z,102546.13
2019-04-29T19:44:08.598Z,102546.41
2019-04-29T19:46:41.911Z,102547.27
2019-04-29T19:49:15.786Z,102547.27
2019-04-29T19:51:48.990Z,102554.25
2019-04-29T19:54:26.636Z,102553.98
2019-04-29T19:57:03.599Z,102553.98
2019-04-29T19:59:32.545Z,102553.11
2019-04-29T20:02:10.046Z,102553.22
2019-04-29T20:04:40.853Z,102557.01
2019-04-29T20:07:16.817Z,102557.01
2019-04-29T20:09:49.600Z,102556.47
2019-04-29T20:12:25.305Z,102560.60
2019-04-29T20:14:59.790Z,102560.60
2019-04-29T20:17:33.413Z,102567.36
2019-04-29T20:20:07.074Z,102560.16
2019-04-29T20:22:43.378Z,102560.16
2019-04-29T20:25:16.471Z,102556.69
2019-04-29T20:27:49.947Z,102560.20
2019-04-29T20:30:23.156Z,102562.25
2019-04-29T20:33:01.610Z,102563.60
2019-04-29T20:35:32.151Z,102570.16
2019-04-29T20:38:05.842Z,102562.77
2019-04-29T20:40:43.179Z,102567.41
2019-04-29T20:43:15.823Z,102561.63
2019-04-29T20:45:48.445Z,102560.27
2019-04-29T20:48:21.664Z,102559.78
2019-04-29T20:50:56.590Z,102561.77
2019-04-29T20:53:30.742Z,102564.23
2019-04-29T20:56:12.248Z,102561.63
2019-04-29T20:58:40.202Z,102556.98
2019-04-29T21:01:15.509Z,102558.44
2019-04-29T21:03:52.124Z,102543.70
2019-04-29T21:06:23.085Z,102552.78
2019-04-29T21:08:55.999Z,102552.78
2019-04-29T21:11:29.196Z,102561.24
2019-04-29T21:14:02.155Z,102553.50
2019-04-29T21:16:35.199Z,102554.27
2019-04-29T21:19:08.918Z,102553.13
2019-04-29T21:21:43.758Z,102551.39
2019-04-29T21:24:18.680Z,102554.65
2019-04-29T21:26:51.505Z,102551.81
2019-04-29T21:29:25.560Z,102551.81
2019-04-29T21:32:01.622Z,102549.00
2019-04-29T21:34:37.526Z,102544.32
2019-04-29T21:37:10.046Z,102550.39
2019-04-29T21:39:44.626Z,102546.05
2019-04-29T21:42:17.653Z,102547.89
2019-04-29T21:44:50.907Z,102547.89
2019-04-29T21:47:26.810Z,102536.17
2019-04-29T21:49:58.599Z,102536.17
2019-04-29T21:52:31.503Z,102548.52
2019-04-29T21:55:05.305Z,102542.97
2019-04-29T21:57:38.274Z,102542.97
2019-04-29T22:00:11.645Z,102549.10
2019-04-29T22:02:46.687Z,102539.36
2019-04-29T22:05:21.139Z,102542.06
2019-04-29T22:07:54.256Z,102545.08
2019-04-29T22:10:29.128Z,102527.33
2019-04-29T22:13:02.924Z,102527.33
2019-04-29T22:15:40.999Z,102537.25
2019-04-29T22:18:14.073Z,102535.80
2019-04-29T22:20:46.671Z,102535.80
2019-04-29T22:23:19.639Z,102531.77
2019-04-29T22:25:52.661Z,102541.72
2019-04-29T22:28:25.636Z,102541.72
2019-04-29T22:30:58.628Z,102541.16
2019-04-29T22:33:34.873Z,102529.56
2019-04-29T22:36:10.273Z,102529.56
2019-04-29T22:38:43.619Z,102532.45
2019-04-29T22:41:20.055Z,102540.86
2019-04-29T22:43:50.883Z,102540.86
2019-04-29T22:46:25.538Z,102528.86
2019-04-29T22:48:58.647Z,102537.98
2019-04-29T22:51:31.881Z,102537.94
2019-04-29T22:54:05.024Z,102537.94
2019-04-29T22:56:40.533Z,102546.47
2019-04-29T22:59:14.761Z,102546.47
2019-04-29T23:01:50.473Z,102538.70
2019-04-29T23:04:22.540Z,102545.89
2019-04-29T23:06:55.471Z,102540.48
2019-04-29T23:09:28.443Z,102545.89
2019-04-29T23:12:01.377Z,102545.89
2019-04-29T23:14:36.026Z,102544.15
2019-04-29T23:17:12.285Z,102530.25
2019-04-29T23:19:46.613Z,102540.68
2019-04-29T23:22:22.031Z,102540.68
2019-04-29T23:24:53.372Z,102538.84
2019-04-29T23:27:26.300Z,102541.55
2019-04-29T23:29:59.204Z,102542.70
2019-04-29T23:32:32.142Z,102536.33
2019-04-29T23:35:09.665Z,102536.33
2019-04-29T23:37:41.390Z,102539.69
2019-04-29T23:40:14.347Z,102534.66
2019-04-29T23:42:47.824Z,102535.22
2019-04-29T23:45:22.450Z,102526.66
2019-04-29T23:47:55.733Z,102525.61
2019-04-29T23:50:28.756Z,102526.38
2019-04-29T23:53:01.681Z,102526.38
2019-04-29T23:55:35.631Z,102534.10
2019-04-29T23:58:08.793Z,102529.28
